Low Moor, IA

1:29 AM CST on January 21, 2017 (GMT -0600)
Clinton

Weather History for KCWI - May, 2013

Change the Weather History Date:

Wednesday, May 15, 2013

  Actual Average Record
Temperature  
Mean Temperature 70 °F -  
Max Temperature 80 °F 72 °F 89 °F (1977)
Min Temperature 60 °F 50 °F 32 °F (1997)
Cooling Degree Days 5    
Growing Degree Days 20 (Base 50)    
Moisture  
Dew Point 48 °F    
Average Humidity 44    
Maximum Humidity 59    
Minimum Humidity 24    
Precipitation  
Precipitation 0.00 in - - ()
Sea Level Pressure  
Sea Level Pressure 29.84 in    
Wind  
Wind Speed 14 mph (NW)    
Max Wind Speed 24 mph    
Max Gust Speed 31 mph    
Visibility 10 miles    
Events      
Averages and records for this station are not official NWS values.
T = Trace of Precipitation, MM = Missing Value Source: NWS Daily Summary

Daily Weather History Graph

Daily Weather History Graph

Search for Another Location

Airport or City:

Trip Planner

Search our weather history database for the weather conditions in past years. The results will help you decide how hot, cold, wet, or windy it might be!

Date:

Astronomy

May. 15, 2013 Rise Set
Actual Time 5:41 AM CDT 8:14 PM CDT
Civil Twilight 5:09 AM CDT 8:46 PM CDT
Nautical Twilight 4:29 AM CDT 9:26 PM CDT
Astronomical Twilight 3:44 AM CDT 10:11 PM CDT
Moon 10:17 AM CDT (5/15) 12:00 AM CDT (5/15)
Length of Visible Light 15h 37m
Length of Day
14h 33m
Waxing Crescent, 27% of the Moon is Illuminated
May 15
Waxing Crescent
May 17
First Quarter
May 24
Full
May 31
Last Quarter
Jun 8
New

Hourly Weather History & Observations

Time (CDT) Temp. Dew Point Humidity Pressure Visibility Wind Dir Wind Speed Gust Speed Precip Events Conditions
12:15 AM 77.0 °F 51.8 °F 41% 29.67 in 10.0 mi WSW 24.2 mph 31.1 mph N/A   Clear
12:35 AM 77.0 °F 51.8 °F 41% 29.67 in 10.0 mi WSW 24.2 mph - N/A   Clear
12:55 AM 77.0 °F 50.0 °F 39% 29.68 in 10.0 mi WSW 21.9 mph 28.8 mph N/A   Clear
1:15 AM 77.0 °F 50.0 °F 39% 29.69 in 10.0 mi WSW 21.9 mph 28.8 mph N/A   Clear
1:35 AM 75.2 °F 50.0 °F 41% 29.69 in 10.0 mi WSW 19.6 mph 29.9 mph N/A   Clear
1:55 AM 75.2 °F 48.2 °F 38% 29.70 in 10.0 mi WSW 23.0 mph - N/A   Clear
2:15 AM 75.2 °F 48.2 °F 38% 29.71 in 10.0 mi West 18.4 mph 26.5 mph N/A   Clear
2:35 AM 73.4 °F 50.0 °F 44% 29.72 in 10.0 mi West 16.1 mph - N/A   Clear
2:55 AM 71.6 °F 50.0 °F 46% 29.73 in 10.0 mi West 16.1 mph - N/A   Clear
3:15 AM 69.8 °F 50.0 °F 49% 29.74 in 10.0 mi West 16.1 mph - N/A   Clear
3:35 AM 69.8 °F 50.0 °F 49% 29.76 in 10.0 mi West 11.5 mph - N/A   Clear
3:55 AM 66.2 °F 50.0 °F 56% 29.77 in 10.0 mi West 11.5 mph - N/A   Clear
4:15 AM 64.4 °F 48.2 °F 56% 29.78 in 10.0 mi West 10.4 mph - N/A   Clear
4:35 AM 62.6 °F 48.2 °F 59% 29.79 in 10.0 mi West 8.1 mph - N/A   Clear
4:55 AM 60.8 °F 46.4 °F 59% 29.79 in 10.0 mi West 9.2 mph - N/A   Clear
5:15 AM 60.8 °F 46.4 °F 59% 29.80 in 10.0 mi West 10.4 mph - N/A   Clear
5:35 AM 60.8 °F 46.4 °F 59% 29.80 in 10.0 mi West 9.2 mph - N/A   Clear
5:55 AM 60.8 °F 46.4 °F 59% 29.80 in 10.0 mi West 8.1 mph - N/A   Clear
6:15 AM 60.8 °F 46.4 °F 59% 29.81 in 10.0 mi West 9.2 mph - N/A   Partly Cloudy
6:35 AM 60.8 °F 46.4 °F 59% 29.81 in 10.0 mi West 9.2 mph - N/A   Clear
6:55 AM 62.6 °F 46.4 °F 55% 29.82 in 10.0 mi West 10.4 mph - N/A   Clear
7:15 AM 64.4 °F 46.4 °F 52% 29.83 in 9.0 mi West 9.2 mph - N/A   Clear
7:35 AM 66.2 °F 46.4 °F 49% 29.84 in 10.0 mi WNW 12.7 mph - N/A   Clear
7:55 AM 68.0 °F 44.6 °F 43% 29.85 in 10.0 mi WNW 11.5 mph - N/A   Clear
8:15 AM 68.0 °F 46.4 °F 46% 29.86 in 10.0 mi NW 8.1 mph - N/A   Clear
8:35 AM 69.8 °F 46.4 °F 43% 29.87 in 10.0 mi NW 12.7 mph - N/A   Clear
8:55 AM 71.6 °F 46.4 °F 41% 29.88 in 10.0 mi NNW 10.4 mph - N/A   Clear
9:15 AM 71.6 °F 46.4 °F 41% 29.89 in 10.0 mi NNW 10.4 mph - N/A   Clear
9:35 AM 71.6 °F 48.2 °F 43% 29.89 in 10.0 mi NNW 11.5 mph - N/A   Clear
9:55 AM 71.6 °F 48.2 °F 43% 29.89 in 10.0 mi North 10.4 mph - N/A   Clear
10:15 AM 71.6 °F 48.2 °F 43% 29.89 in 10.0 mi North 9.2 mph - N/A   Clear
10:35 AM 73.4 °F 48.2 °F 41% 29.88 in 10.0 mi NNW 10.4 mph - N/A   Clear
10:55 AM 73.4 °F 50.0 °F 44% 29.89 in 10.0 mi North 9.2 mph - N/A   Clear
11:15 AM 73.4 °F 51.8 °F 47% 29.89 in 10.0 mi North 8.1 mph - N/A   Clear
11:35 AM 73.4 °F 48.2 °F 41% 29.89 in 10.0 mi North 11.5 mph - N/A   Clear
11:55 AM 75.2 °F 48.2 °F 38% 29.89 in 10.0 mi North 15.0 mph 21.9 mph N/A   Clear
12:15 PM 75.2 °F 48.2 °F 38% 29.89 in 10.0 mi North 6.9 mph - N/A   Clear
12:35 PM 75.2 °F 50.0 °F 41% 29.88 in 10.0 mi North 10.4 mph - N/A   Clear
12:55 PM 75.2 °F 48.2 °F 38% 29.88 in 10.0 mi North 11.5 mph - N/A   Clear
1:15 PM 77.0 °F 50.0 °F 39% 29.89 in 10.0 mi North 12.7 mph 19.6 mph N/A   Clear
1:35 PM 78.8 °F 51.8 °F 39% 29.88 in 10.0 mi NNE 12.7 mph 18.4 mph N/A   Clear
1:55 PM 78.8 °F 48.2 °F 34% 29.88 in 10.0 mi North 9.2 mph 16.1 mph N/A   Clear
2:15 PM 78.8 °F 46.4 °F 32% 29.88 in 10.0 mi NNW 6.9 mph 17.3 mph N/A   Clear
2:35 PM 78.8 °F 44.6 °F 30% 29.88 in 10.0 mi North 6.9 mph 16.1 mph N/A   Clear
2:55 PM 77.0 °F 46.4 °F 34% 29.87 in 10.0 mi NNE 4.6 mph - N/A   Clear
3:15 PM 78.8 °F 48.2 °F 34% 29.88 in 10.0 mi NNW 3.5 mph - N/A   Clear
3:35 PM 78.8 °F 46.4 °F 32% 29.87 in 10.0 mi NNW 6.9 mph - N/A   Clear
3:55 PM 80.6 °F 41.0 °F 24% 29.87 in 10.0 mi WNW 8.1 mph - N/A   Clear
4:15 PM 80.6 °F 41.0 °F 24% 29.87 in 10.0 mi NW 9.2 mph - N/A   Clear
4:35 PM 78.8 °F 39.2 °F 24% 29.85 in 10.0 mi NW 8.1 mph - N/A   Clear
4:55 PM 78.8 °F 42.8 °F 28% 29.84 in 10.0 mi NNE 4.6 mph - N/A   Clear
5:15 PM 78.8 °F 42.8 °F 28% 29.85 in 10.0 mi North 10.4 mph - N/A   Clear
5:35 PM 77.0 °F 44.6 °F 32% 29.87 in 10.0 mi NW 13.8 mph - N/A   Partly Cloudy
5:55 PM 73.4 °F 48.2 °F 41% 29.84 in 9.0 mi WSW 4.6 mph - N/A   Scattered Clouds
6:15 PM 73.4 °F 51.8 °F 47% 29.83 in 10.0 mi SW 4.6 mph - N/A   Clear
6:35 PM 73.4 °F 55.4 °F 53% 29.84 in 10.0 mi West 6.9 mph - N/A   Clear
6:55 PM 73.4 °F 53.6 °F 50% 29.84 in 10.0 mi West 5.8 mph - N/A   Clear
7:15 PM 73.4 °F 55.4 °F 53% 29.85 in 10.0 mi WSW 4.6 mph - N/A   Clear
7:35 PM 73.4 °F 53.6 °F 50% 29.86 in 10.0 mi WNW 5.8 mph - N/A   Clear
7:55 PM 73.4 °F 50.0 °F 44% 29.86 in 10.0 mi NW 6.9 mph - N/A   Clear
8:15 PM 71.6 °F 46.4 °F 41% 29.87 in 10.0 mi NW 6.9 mph - N/A   Clear
8:35 PM 69.8 °F 46.4 °F 43% 29.87 in 10.0 mi NW 8.1 mph - N/A   Clear
8:55 PM 68.0 °F 46.4 °F 46% 29.87 in 9.0 mi NNW 5.8 mph - N/A   Clear
9:15 PM 69.8 °F 44.6 °F 40% 29.88 in 10.0 mi NNW 5.8 mph - N/A   Clear
9:35 PM 68.0 °F 46.4 °F 46% 29.89 in 10.0 mi North 11.5 mph - N/A   Clear
9:55 PM 66.2 °F 46.4 °F 49% 29.89 in 10.0 mi North 11.5 mph - N/A   Clear
10:15 PM 64.4 °F 46.4 °F 52% 29.89 in 10.0 mi North 11.5 mph - N/A   Clear
10:35 PM 62.6 °F 44.6 °F 52% 29.89 in 10.0 mi North 11.5 mph - N/A   Clear
10:55 PM 62.6 °F 44.6 °F 52% 29.88 in 10.0 mi North 10.4 mph - N/A   Clear
11:15 PM 64.4 °F 44.6 °F 49% 29.88 in 10.0 mi North 10.4 mph - N/A   Clear
11:35 PM 64.4 °F 44.6 °F 49% 29.88 in 10.0 mi North 9.2 mph - N/A   Clear
11:55 PM 62.6 °F 44.6 °F 52% 29.88 in 10.0 mi North 10.4 mph - N/A   Clear